Time;durP1;ratioP1;P1;durP2;ratioP2;P2;SDS_P1;SDS_P2;PMS_P1;PMS_P2;Temp;Humidity;BMP_temperature;BMP_pressure;BME280_temperature;BME280_humidity;BME280_pressure;Samples;Min_cycle;Max_cycle;Signal;HPM_P1;HPM_P2
2023/06/22 00:01:14;;;;;;;8.25;6.70;;;21.20;1.00;;;;;;7393540;19;20022;-70
2023/06/22 00:03:44;;;;;;;10.20;7.20;;;21.10;1.00;;;;;;7396003;19;20030;-71
2023/06/22 00:06:14;;;;;;;7.68;6.45;;;21.10;1.00;;;;;;7392439;19;20022;-71
2023/06/22 00:08:44;;;;;;;10.88;6.82;;;21.10;1.00;;;;;;7391752;19;20018;-71
2023/06/22 00:11:14;;;;;;;10.52;6.65;;;21.10;1.00;;;;;;7390079;19;20011;-72
2023/06/22 00:13:47;;;;;;;10.27;7.30;;;21.10;1.00;;;;;;7393861;19;20047;-71
2023/06/22 00:16:17;;;;;;;9.63;7.65;;;21.10;1.00;;;;;;7391542;19;20390;-71
2023/06/22 00:18:48;;;;;;;10.65;7.03;;;21.10;1.00;;;;;;7395333;19;20376;-71
2023/06/22 00:21:20;;;;;;;11.32;7.50;;;21.00;1.00;;;;;;7392227;19;20035;-70
2023/06/22 00:23:50;;;;;;;8.73;7.03;;;21.10;1.00;;;;;;7394782;19;20015;-70
2023/06/22 00:26:20;;;;;;;9.32;6.45;;;21.10;1.00;;;;;;7391018;19;20042;-70
2023/06/22 00:28:53;;;;;;;11.02;7.25;;;21.10;1.00;;;;;;7392072;19;20011;-71
2023/06/22 00:31:23;;;;;;;8.68;6.63;;;21.00;1.00;;;;;;7389194;19;20018;-70
2023/06/22 00:33:53;;;;;;;7.70;6.90;;;21.00;1.00;;;;;;7392926;19;20019;-72
2023/06/22 00:36:24;;;;;;;9.38;7.28;;;21.10;1.00;;;;;;7390633;19;20014;-71
2023/06/22 00:38:54;;;;;;;12.40;7.72;;;21.10;1.00;;;;;;7388501;19;20023;-70
2023/06/22 00:41:28;;;;;;;8.63;7.18;;;21.10;1.00;;;;;;7388079;19;20041;-71
2023/06/22 00:44:01;;;;;;;10.07;7.30;;;21.10;1.00;;;;;;7389210;19;20018;-72
2023/06/22 00:46:31;;;;;;;9.80;7.45;;;21.20;1.00;;;;;;7392942;19;20432;-71
2023/06/22 00:49:03;;;;;;;12.20;7.32;;;21.20;1.00;;;;;;7392148;19;20014;-72
2023/06/22 00:51:34;;;;;;;10.27;7.38;;;21.20;1.00;;;;;;7391360;19;20071;-71
2023/06/22 00:54:05;;;;;;;12.15;7.90;;;21.10;1.00;;;;;;7391661;19;20019;-71
2023/06/22 00:56:37;;;;;;;10.77;7.43;;;21.20;1.00;;;;;;7390765;19;20035;-72
2023/06/22 00:59:12;;;;;;;10.02;7.57;;;21.10;1.00;;;;;;7391897;19;20018;-69
2023/06/22 01:01:42;;;;;;;11.13;7.55;;;21.10;1.00;;;;;;7394528;19;20014;-71
2023/06/22 01:04:11;;;;;;;9.43;7.20;;;21.10;1.00;;;;;;7393283;19;20531;-71
2023/06/22 01:06:47;;;;;;;12.13;7.25;;;21.20;1.00;;;;;;7392521;19;20628;-71
2023/06/22 01:09:20;;;;;;;12.07;7.75;;;21.00;1.00;;;;;;7390061;19;20018;-71
2023/06/22 01:11:56;;;;;;;9.27;7.43;;;20.90;1.00;;;;;;7390025;19;20018;-71
2023/06/22 01:14:38;;;;;;;11.30;8.07;;;20.90;1.00;;;;;;7392694;19;20344;-72
2023/06/22 01:17:10;;;;;;;11.02;8.18;;;20.90;1.00;;;;;;7388566;19;20014;-70
2023/06/22 01:19:47;;;;;;;10.43;8.07;;;20.80;1.00;;;;;;7389323;19;20344;-71
2023/06/22 01:22:19;;;;;;;12.60;7.88;;;20.60;1.00;;;;;;7393516;19;20678;-70
2023/06/22 01:24:59;;;;;;;10.50;7.70;;;20.60;1.00;;;;;;7391236;19;20479;-71
2023/06/22 01:27:45;;;;;;;9.95;7.38;;;20.50;1.00;;;;;;7389529;19;20074;-71
2023/06/22 01:30:19;;;;;;;8.52;7.10;;;20.50;1.00;;;;;;7391263;19;20014;-71
2023/06/22 01:32:50;;;;;;;8.05;7.18;;;20.50;1.00;;;;;;7389423;19;20015;-71
2023/06/22 01:35:21;;;;;;;9.30;7.65;;;20.50;1.00;;;;;;7387412;19;20022;-70
2023/06/22 01:37:52;;;;;;;9.20;8.13;;;20.40;1.00;;;;;;7387903;19;20018;-71
2023/06/22 01:40:23;;;;;;;9.20;7.95;;;20.50;1.00;;;;;;7388175;19;20451;-70
2023/06/22 01:42:54;;;;;;;12.02;7.63;;;20.70;1.00;;;;;;7390521;19;20018;-72
2023/06/22 01:45:28;;;;;;;9.77;7.95;;;20.50;1.00;;;;;;7389252;19;20230;-71
2023/06/22 01:47:58;;;;;;;13.27;8.32;;;20.30;1.00;;;;;;7389564;19;20102;-71
2023/06/22 01:50:28;;;;;;;9.55;8.35;;;20.30;1.00;;;;;;7386537;19;20018;-71
2023/06/22 01:52:59;;;;;;;12.82;8.38;;;20.30;1.00;;;;;;7387412;19;20006;-71
2023/06/22 01:55:29;;;;;;;13.40;8.30;;;20.20;1.30;;;;;;7385426;19;20019;-70
2023/06/22 01:57:59;;;;;;;11.02;8.45;;;20.20;1.80;;;;;;7387171;19;20038;-70
2023/06/22 02:00:39;;;;;;;9.90;7.90;;;20.20;2.90;;;;;;7386350;19;20018;-72
2023/06/22 02:03:14;;;;;;;10.82;7.63;;;20.20;3.40;;;;;;7389469;19;20014;-70
2023/06/22 02:05:50;;;;;;;11.18;8.23;;;20.10;3.40;;;;;;7391509;19;20014;-70
2023/06/22 02:08:23;;;;;;;11.38;8.10;;;20.00;4.20;;;;;;7390773;19;20015;-70
2023/06/22 02:10:56;;;;;;;11.48;8.45;;;20.00;4.90;;;;;;7386053;19;20043;-70
2023/06/22 02:13:27;;;;;;;11.23;7.97;;;20.10;5.30;;;;;;7389512;19;20087;-70
2023/06/22 02:16:00;;;;;;;10.80;8.32;;;20.10;3.60;;;;;;7385931;19;20018;-70
2023/06/22 02:18:30;;;;;;;10.50;8.00;;;20.00;5.30;;;;;;7389946;19;20047;-70
2023/06/22 02:21:00;;;;;;;12.05;8.85;;;20.00;6.20;;;;;;7386159;19;20014;-70
2023/06/22 02:23:30;;;;;;;10.93;8.63;;;20.00;6.60;;;;;;7389293;19;20023;-70
2023/06/22 02:25:59;;;;;;;11.77;8.40;;;20.10;5.40;;;;;;7386867;19;20478;-71
2023/06/22 02:28:29;;;;;;;12.45;8.80;;;20.00;6.20;;;;;;7386638;19;20027;-71
2023/06/22 02:31:02;;;;;;;10.65;8.00;;;19.90;7.10;;;;;;7385988;19;20098;-71
2023/06/22 02:33:32;;;;;;;10.88;8.60;;;19.80;7.40;;;;;;7388813;19;20014;-71
2023/06/22 02:36:04;;;;;;;11.25;8.18;;;19.70;7.50;;;;;;7385847;19;20014;-71
2023/06/22 02:38:36;;;;;;;10.75;8.30;;;19.70;8.50;;;;;;7387088;19;20011;-70
2023/06/22 02:41:06;;;;;;;9.45;8.00;;;19.70;8.00;;;;;;7389676;19;20021;-70
2023/06/22 02:43:36;;;;;;;11.95;8.35;;;19.70;8.80;;;;;;7388833;19;20025;-70
2023/06/22 02:46:08;;;;;;;9.70;8.05;;;19.60;9.30;;;;;;7387013;19;20018;-70
2023/06/22 02:48:38;;;;;;;10.52;7.70;;;19.70;9.20;;;;;;7388462;19;20018;-70
2023/06/22 02:51:08;;;;;;;15.10;8.02;;;19.80;8.40;;;;;;7391793;19;20031;-70
2023/06/22 02:53:38;;;;;;;10.10;7.53;;;19.70;7.80;;;;;;7395806;19;20015;-71
2023/06/22 02:56:08;;;;;;;11.63;7.82;;;19.70;7.80;;;;;;7391774;19;20018;-70
2023/06/22 02:58:38;;;;;;;9.55;7.70;;;19.60;8.30;;;;;;7393882;19;20089;-71
2023/06/22 03:01:12;;;;;;;12.75;8.23;;;19.50;9.10;;;;;;7391892;19;20015;-71
2023/06/22 03:03:42;;;;;;;;;;;19.50;9.20;;;;;;7398270;19;20082;-71
2023/06/22 03:06:13;;;;;;;12.30;8.20;;;19.50;9.70;;;;;;7393965;19;19932;-71
2023/06/22 03:08:44;;;;;;;10.98;8.30;;;19.40;8.60;;;;;;7394569;19;20027;-71
2023/06/22 03:11:14;;;;;;;11.40;8.02;;;19.40;9.90;;;;;;7391236;19;20011;-71
2023/06/22 03:13:45;;;;;;;9.52;8.52;;;19.50;10.60;;;;;;7395895;19;20014;-71
2023/06/22 03:16:18;;;;;;;10.05;7.90;;;19.40;11.10;;;;;;7390046;19;20018;-71
2023/06/22 03:18:48;;;;;;;10.43;8.73;;;19.50;11.00;;;;;;7393993;19;20077;-71
2023/06/22 03:21:17;;;;;;;11.60;8.40;;;19.40;10.70;;;;;;7391207;19;20479;-70
2023/06/22 03:23:47;;;;;;;10.85;8.65;;;19.40;10.70;;;;;;7394787;19;20019;-71
2023/06/22 03:26:20;;;;;;;11.10;8.32;;;19.50;10.80;;;;;;7393650;19;20037;-71
2023/06/22 03:28:52;;;;;;;12.95;8.05;;;19.50;10.40;;;;;;7392715;19;20018;-71
2023/06/22 03:31:25;;;;;;;9.32;7.93;;;19.50;10.50;;;;;;7390907;19;20017;-71
2023/06/22 03:33:55;;;;;;;11.68;8.70;;;19.50;10.70;;;;;;7394871;19;20022;-71
2023/06/22 03:36:25;;;;;;;10.35;7.85;;;19.60;10.50;;;;;;7391323;19;20040;-71
2023/06/22 03:38:55;;;;;;;14.10;8.90;;;19.60;9.70;;;;;;7393206;19;20519;-71
2023/06/22 03:41:25;;;;;;;11.07;8.57;;;19.70;8.90;;;;;;7390473;19;20014;-73
2023/06/22 03:43:55;;;;;;;14.60;8.73;;;19.80;8.20;;;;;;7394032;19;20036;-71
2023/06/22 03:46:27;;;;;;;13.82;8.88;;;19.90;7.10;;;;;;7393070;19;20074;-71
2023/06/22 03:48:57;;;;;;;13.10;8.60;;;20.00;6.70;;;;;;7392880;19;20010;-71
2023/06/22 03:51:27;;;;;;;11.57;8.45;;;19.90;6.40;;;;;;7390585;19;20024;-71
2023/06/22 03:53:57;;;;;;;13.75;9.15;;;19.90;6.90;;;;;;7392459;19;20018;-71
2023/06/22 03:56:27;;;;;;;13.05;8.70;;;19.90;7.00;;;;;;7389418;19;20458;-71
2023/06/22 03:58:57;;;;;;;11.52;8.82;;;20.10;6.10;;;;;;7393278;19;20016;-71
2023/06/22 04:01:30;;;;;;;12.90;8.85;;;20.40;3.40;;;;;;7389054;19;20093;-72
2023/06/22 04:04:00;;;;;;;11.13;9.00;;;20.50;1.60;;;;;;7393463;19;20014;-72
2023/06/22 04:06:30;;;;;;;14.45;9.10;;;20.50;1.00;;;;;;7393478;19;20356;-72
2023/06/22 04:09:00;;;;;;;13.40;8.18;;;20.60;1.00;;;;;;7392424;19;20090;-72
2023/06/22 04:11:30;;;;;;;14.18;9.73;;;20.70;1.00;;;;;;7389623;19;20428;-72
2023/06/22 04:14:00;;;;;;;12.50;8.77;;;20.70;1.00;;;;;;7393503;19;20007;-71
2023/06/22 04:16:33;;;;;;;13.27;8.52;;;21.20;1.00;;;;;;7390320;19;20366;-72
2023/06/22 04:19:03;;;;;;;11.90;8.45;;;21.80;1.00;;;;;;7392115;19;20490;-72
2023/06/22 04:21:33;;;;;;;15.50;8.02;;;21.90;1.00;;;;;;7389502;19;20018;-72
2023/06/22 04:24:02;;;;;;;11.88;8.65;;;22.20;1.00;;;;;;7386764;19;20031;-72
2023/06/22 04:26:36;;;;;;;11.07;7.30;;;22.20;1.00;;;;;;7388982;19;20030;-71
2023/06/22 04:29:08;;;;;;;11.48;8.05;;;22.90;1.00;;;;;;7389571;19;20019;-71
2023/06/22 04:31:41;;;;;;;13.95;7.82;;;23.00;1.00;;;;;;7389743;19;20014;-72
2023/06/22 04:34:11;;;;;;;9.50;7.70;;;23.20;1.00;;;;;;7392953;19;20014;-72
2023/06/22 04:36:42;;;;;;;11.55;8.60;;;23.60;1.00;;;;;;7388253;19;20010;-72
2023/06/22 04:39:13;;;;;;;9.93;7.80;;;23.60;1.00;;;;;;7394482;19;20434;-72
2023/06/22 04:41:46;;;;;;;10.13;7.53;;;23.80;1.00;;;;;;7390567;19;20014;-71
2023/06/22 04:44:23;;;;;;;13.13;8.50;;;23.80;1.00;;;;;;7387782;19;20011;-71
2023/06/22 04:47:01;;;;;;;10.90;7.80;;;23.80;1.00;;;;;;7386612;19;20515;-71
2023/06/22 04:49:35;;;;;;;11.90;8.65;;;23.90;1.00;;;;;;7389047;19;20047;-71
2023/06/22 04:52:08;;;;;;;13.18;8.32;;;24.00;1.00;;;;;;7390928;19;20063;-70
2023/06/22 04:54:47;;;;;;;12.15;8.50;;;23.90;1.00;;;;;;7393027;19;20011;-71
2023/06/22 04:57:17;;;;;;;13.20;8.40;;;24.10;1.00;;;;;;7385735;19;20372;-71
2023/06/22 04:59:47;;;;;;;13.38;7.63;;;24.00;1.00;;;;;;7389604;19;20523;-71
2023/06/22 05:02:20;;;;;;;14.35;8.88;;;24.80;1.00;;;;;;7387321;19;20077;-71
2023/06/22 05:04:51;;;;;;;11.10;7.68;;;25.40;1.00;;;;;;7389979;19;20019;-71
2023/06/22 05:07:25;;;;;;;11.88;8.65;;;25.30;1.00;;;;;;7388615;19;20115;-71
2023/06/22 05:09:55;;;;;;;12.82;8.27;;;25.40;1.00;;;;;;7389934;19;20022;-71
2023/06/22 05:12:25;;;;;;;10.73;7.72;;;25.60;1.00;;;;;;7384983;19;20035;-72
2023/06/22 05:14:55;;;;;;;10.57;7.85;;;25.50;1.00;;;;;;7388334;19;20048;-72
2023/06/22 05:17:27;;;;;;;10.57;7.45;;;25.20;1.00;;;;;;7385936;19;20094;-70
2023/06/22 05:19:57;;;;;;;10.50;7.55;;;25.80;1.00;;;;;;7390594;19;20488;-71
2023/06/22 05:22:27;;;;;;;12.32;8.20;;;25.10;1.00;;;;;;7391617;19;20018;-70
2023/06/22 05:24:57;;;;;;;12.25;8.80;;;25.30;1.00;;;;;;7392130;19;20010;-71
2023/06/22 05:27:27;;;;;;;8.50;7.38;;;25.30;1.00;;;;;;7386621;19;20081;-71
2023/06/22 05:29:57;;;;;;;12.38;8.57;;;25.80;1.00;;;;;;7386939;19;20094;-70
2023/06/22 05:32:30;;;;;;;12.57;8.40;;;25.80;1.00;;;;;;7387987;19;20943;-71
2023/06/22 05:35:00;;;;;;;12.73;9.35;;;25.70;1.00;;;;;;7388561;19;20070;-72
2023/06/22 05:37:31;;;;;;;13.30;7.70;;;25.60;1.00;;;;;;7387035;19;20018;-71
2023/06/22 05:40:01;;;;;;;10.75;8.38;;;25.80;1.00;;;;;;7389421;19;20031;-71
2023/06/22 05:42:31;;;;;;;12.10;9.10;;;26.10;1.00;;;;;;7388420;19;20024;-72
2023/06/22 05:45:01;;;;;;;14.00;8.73;;;25.00;1.00;;;;;;7391298;19;20450;-72
2023/06/22 05:47:34;;;;;;;12.80;8.57;;;25.00;1.00;;;;;;7388732;19;20128;-72
2023/06/22 05:50:06;;;;;;;11.45;9.05;;;25.10;1.00;;;;;;7388656;19;20028;-72
2023/06/22 05:52:36;;;;;;;12.63;8.38;;;25.20;1.00;;;;;;7388482;19;20052;-72
2023/06/22 05:55:07;;;;;;;16.42;8.95;;;25.80;1.00;;;;;;7391742;19;20019;-72
2023/06/22 05:57:37;;;;;;;11.95;8.50;;;25.30;1.00;;;;;;7387062;19;20022;-72
2023/06/22 06:00:10;;;;;;;12.23;7.70;;;24.60;1.00;;;;;;7385039;19;20021;-72
2023/06/22 06:02:43;;;;;;;12.05;8.20;;;23.90;1.00;;;;;;7388387;19;20168;-72
2023/06/22 06:05:14;;;;;;;9.98;8.27;;;23.40;1.00;;;;;;7390479;19;20018;-72
2023/06/22 06:07:45;;;;;;;11.93;8.25;;;23.40;1.00;;;;;;7388163;19;20040;-71
2023/06/22 06:10:15;;;;;;;10.75;8.23;;;23.50;1.00;;;;;;7387892;19;20010;-72
2023/06/22 06:12:44;;;;;;;10.05;8.10;;;23.50;1.00;;;;;;7393333;19;20018;-72
2023/06/22 06:15:14;;;;;;;11.77;8.02;;;23.90;1.00;;;;;;7390880;19;20092;-71
2023/06/22 06:17:54;;;;;;;9.20;7.63;;;24.30;1.00;;;;;;7383455;19;20043;-72
2023/06/22 06:20:27;;;;;;;10.88;7.70;;;24.30;1.00;;;;;;7383565;19;20007;-72
2023/06/22 06:22:58;;;;;;;11.83;8.10;;;24.20;1.00;;;;;;7384922;19;20022;-72
2023/06/22 06:25:28;;;;;;;12.55;7.97;;;24.50;1.00;;;;;;7384661;19;20783;-72
2023/06/22 06:27:58;;;;;;;9.85;7.43;;;24.20;1.00;;;;;;7388596;19;20378;-71
2023/06/22 06:30:28;;;;;;;10.50;7.20;;;24.60;1.00;;;;;;7389769;19;20078;-71
2023/06/22 06:33:01;;;;;;;9.18;7.07;;;24.70;1.00;;;;;;7390343;19;20038;-72
2023/06/22 06:35:31;;;;;;;14.25;6.97;;;25.20;1.00;;;;;;7391382;19;20022;-72
2023/06/22 06:38:02;;;;;;;12.20;7.32;;;25.70;1.00;;;;;;7385567;19;20018;-72
2023/06/22 06:40:32;;;;;;;10.27;7.28;;;26.30;1.00;;;;;;7388808;19;20018;-72
2023/06/22 06:43:03;;;;;;;9.27;7.28;;;26.40;1.00;;;;;;7387056;19;20016;-72
2023/06/22 06:45:34;;;;;;;9.52;7.07;;;25.70;1.00;;;;;;7389761;19;20045;-73
2023/06/22 06:48:07;;;;;;;15.75;7.47;;;24.90;1.00;;;;;;7387634;19;20022;-71
2023/06/22 06:50:37;;;;;;;7.32;6.55;;;25.30;1.00;;;;;;7386139;19;20043;-72
2023/06/22 06:53:07;;;;;;;9.10;6.93;;;25.80;1.00;;;;;;7385345;19;20465;-72
2023/06/22 06:55:37;;;;;;;9.40;7.55;;;25.70;1.00;;;;;;7390689;19;20039;-71
2023/06/22 06:58:09;;;;;;;10.27;6.80;;;25.70;1.00;;;;;;7384751;19;20024;-71
2023/06/22 07:00:39;;;;;;;8.63;5.78;;;26.00;1.00;;;;;;7389780;19;20660;-71
2023/06/22 07:03:12;;;;;;;11.07;6.25;;;26.00;1.00;;;;;;7386695;19;20024;-71
2023/06/22 07:05:42;;;;;;;10.25;6.53;;;25.70;1.00;;;;;;7388283;19;20085;-71
2023/06/22 07:08:12;;;;;;;8.40;5.95;;;25.90;1.00;;;;;;7386649;19;20495;-72
2023/06/22 07:10:42;;;;;;;8.85;5.85;;;26.00;1.00;;;;;;7383429;19;20015;-71
2023/06/22 07:13:12;;;;;;;7.10;5.07;;;26.10;1.00;;;;;;7387116;19;20361;-71
2023/06/22 07:15:42;;;;;;;9.05;5.93;;;26.00;1.00;;;;;;7388909;19;20094;-70
2023/06/22 07:18:14;;;;;;;7.57;5.55;;;25.80;1.00;;;;;;7385170;19;20010;-72
2023/06/22 07:20:44;;;;;;;7.97;5.68;;;26.10;1.00;;;;;;7384824;19;20024;-70
2023/06/22 07:23:14;;;;;;;10.63;6.07;;;26.10;1.00;;;;;;7383590;19;20406;-71
2023/06/22 07:25:44;;;;;;;10.57;6.07;;;25.80;1.00;;;;;;7384634;19;20014;-71
2023/06/22 07:28:14;;;;;;;9.13;6.25;;;26.20;1.00;;;;;;7385088;19;20481;-71
2023/06/22 07:30:44;;;;;;;6.63;5.40;;;26.00;1.00;;;;;;7382676;19;20018;-71
2023/06/22 07:33:17;;;;;;;8.13;5.75;;;26.30;1.00;;;;;;7384706;19;20482;-71
2023/06/22 07:35:47;;;;;;;6.85;5.95;;;26.40;1.00;;;;;;7391002;19;20018;-71
2023/06/22 07:38:17;;;;;;;8.45;5.88;;;26.20;1.00;;;;;;7391349;19;20010;-72
2023/06/22 07:40:47;;;;;;;11.40;5.35;;;26.50;1.00;;;;;;7390984;19;20025;-71
2023/06/22 07:43:17;;;;;;;8.45;6.13;;;26.10;1.00;;;;;;7396516;19;20011;-71
2023/06/22 07:45:52;;;;;;;8.55;5.68;;;26.40;1.00;;;;;;7396858;19;20006;-72
2023/06/22 07:48:25;;;;;;;7.60;5.53;;;26.50;1.00;;;;;;7392389;19;20018;-71
2023/06/22 07:50:55;;;;;;;10.90;5.82;;;26.60;1.00;;;;;;7395079;19;20422;-71
2023/06/22 07:53:25;;;;;;;7.28;5.45;;;26.50;1.00;;;;;;7391854;19;20066;-71
2023/06/22 07:55:55;;;;;;;9.18;5.38;;;26.60;1.00;;;;;;7391430;19;20014;-71
2023/06/22 07:58:25;;;;;;;9.70;5.68;;;26.80;1.00;;;;;;7389067;19;20027;-71
2023/06/22 08:00:55;;;;;;;7.38;5.25;;;27.10;1.00;;;;;;7387783;19;20023;-72
2023/06/22 08:03:27;;;;;;;8.23;5.10;;;27.20;1.00;;;;;;7391961;19;20022;-72
2023/06/22 08:05:58;;;;;;;10.40;5.63;;;26.60;1.00;;;;;;7395770;19;20025;-72
2023/06/22 08:08:28;;;;;;;6.97;5.57;;;26.80;1.00;;;;;;7394088;19;20026;-71
2023/06/22 08:10:58;;;;;;;6.45;5.35;;;26.50;1.00;;;;;;7389691;19;20070;-72
2023/06/22 08:13:28;;;;;;;10.48;5.63;;;26.70;1.00;;;;;;7392414;19;20043;-72
2023/06/22 08:15:58;;;;;;;10.82;5.22;;;26.70;1.00;;;;;;7390396;19;20023;-72
2023/06/22 08:18:30;;;;;;;9.45;4.82;;;27.00;1.00;;;;;;7387594;19;20022;-71
2023/06/22 08:21:00;;;;;;;11.05;5.40;;;27.50;1.00;;;;;;7386955;19;20017;-71
2023/06/22 08:23:33;;;;;;;8.55;5.40;;;27.30;1.00;;;;;;7390021;19;20023;-72
2023/06/22 08:26:03;;;;;;;6.53;4.90;;;27.10;1.00;;;;;;7395424;19;20482;-72
2023/06/22 08:28:33;;;;;;;6.72;4.50;;;27.50;1.00;;;;;;7395605;19;20043;-72
2023/06/22 08:31:05;;;;;;;7.57;4.75;;;28.30;1.00;;;;;;7389584;19;20479;-73
2023/06/22 08:33:37;;;;;;;7.07;5.20;;;28.20;1.00;;;;;;7394050;19;20035;-73
2023/06/22 08:36:18;;;;;;;11.50;4.95;;;28.00;1.00;;;;;;7390793;19;20086;-71
2023/06/22 08:38:51;;;;;;;7.45;4.90;;;28.10;1.00;;;;;;7389871;19;20014;-71
2023/06/22 08:41:21;;;;;;;10.80;4.45;;;28.20;1.00;;;;;;7385889;19;20479;-71
2023/06/22 08:43:51;;;;;;;9.48;4.95;;;28.00;1.00;;;;;;7390996;19;20025;-72
2023/06/22 08:46:24;;;;;;;7.72;5.10;;;28.20;1.00;;;;;;7386926;19;20049;-71
2023/06/22 08:48:57;;;;;;;8.68;4.60;;;28.00;1.00;;;;;;7394306;19;20115;-70
2023/06/22 08:51:29;;;;;;;8.75;5.43;;;28.10;1.00;;;;;;7390164;19;20022;-72
2023/06/22 08:53:59;;;;;;;9.75;4.95;;;27.90;1.00;;;;;;7390561;19;20509;-73
2023/06/22 08:56:29;;;;;;;8.00;4.55;;;27.90;1.00;;;;;;7390904;19;20049;-72
2023/06/22 08:59:00;;;;;;;6.20;4.65;;;27.60;1.00;;;;;;7387001;19;20367;-71
2023/06/22 09:01:30;;;;;;;8.15;4.50;;;27.40;1.00;;;;;;7387521;19;20014;-72
2023/06/22 09:04:03;;;;;;;11.48;4.75;;;27.70;1.00;;;;;;7388825;19;20045;-72
2023/06/22 09:06:34;;;;;;;8.63;5.07;;;28.30;1.00;;;;;;7393447;19;20014;-71
2023/06/22 09:09:04;;;;;;;7.10;4.40;;;28.50;1.00;;;;;;7387067;19;20025;-72
2023/06/22 09:11:34;;;;;;;7.80;4.43;;;28.90;1.00;;;;;;7385714;19;20086;-73
2023/06/22 09:14:04;;;;;;;9.40;4.30;;;28.80;1.00;;;;;;7387098;19;20482;-72
2023/06/22 09:16:35;;;;;;;9.70;4.50;;;28.70;1.00;;;;;;7387337;19;20015;-72
2023/06/22 09:19:07;;;;;;;7.90;5.00;;;29.20;1.00;;;;;;7388448;19;20018;-70
2023/06/22 09:21:37;;;;;;;9.23;5.43;;;28.90;1.00;;;;;;7393969;19;20023;-70
2023/06/22 09:24:08;;;;;;;8.63;4.90;;;28.90;1.00;;;;;;7386735;19;20011;-72
2023/06/22 09:26:38;;;;;;;8.82;4.78;;;29.00;1.00;;;;;;7387373;19;20014;-72
2023/06/22 09:29:08;;;;;;;8.43;5.03;;;29.10;1.00;;;;;;7385523;19;20010;-72
2023/06/22 09:31:39;;;;;;;7.35;5.40;;;29.30;1.00;;;;;;7387648;19;20018;-71
2023/06/22 09:34:11;;;;;;;10.52;4.90;;;29.20;1.00;;;;;;7386641;19;20018;-71
2023/06/22 09:36:42;;;;;;;11.48;7.60;;;29.40;1.00;;;;;;7389764;19;20043;-71
2023/06/22 09:39:12;;;;;;;10.07;4.85;;;29.70;1.00;;;;;;7388650;19;20022;-71
2023/06/22 09:41:41;;;;;;;9.00;5.03;;;30.30;1.00;;;;;;7386895;19;20053;-72
2023/06/22 09:44:12;;;;;;;8.35;4.85;;;30.00;1.00;;;;;;7384221;19;20069;-72
2023/06/22 09:46:42;;;;;;;8.05;5.60;;;29.50;1.00;;;;;;7387176;19;20022;-71
2023/06/22 09:49:14;;;;;;;10.65;4.75;;;28.90;1.00;;;;;;7390527;19;20011;-71
2023/06/22 09:51:44;;;;;;;12.10;4.75;;;28.80;1.00;;;;;;7388693;19;20042;-72
2023/06/22 09:54:14;;;;;;;9.18;4.32;;;29.10;1.00;;;;;;7383917;19;20011;-71
2023/06/22 09:56:44;;;;;;;8.15;4.65;;;29.30;1.00;;;;;;7384502;19;20010;-71
2023/06/22 09:59:14;;;;;;;7.30;4.95;;;29.80;1.00;;;;;;7383448;19;20037;-72
2023/06/22 10:01:47;;;;;;;11.75;4.82;;;30.10;1.00;;;;;;7387296;19;20025;-72
2023/06/22 10:04:20;;;;;;;11.10;4.95;;;30.30;1.00;;;;;;7391263;19;20014;-72
2023/06/22 10:06:50;;;;;;;11.65;5.07;;;29.70;1.00;;;;;;7386141;19;20018;-70
2023/06/22 10:09:21;;;;;;;9.25;4.97;;;29.90;1.00;;;;;;7389843;19;20467;-71
2023/06/22 10:11:51;;;;;;;9.13;5.22;;;30.40;1.00;;;;;;7388526;19;20018;-72
2023/06/22 10:14:21;;;;;;;14.50;5.30;;;30.10;1.00;;;;;;7387422;19;20018;-72
2023/06/22 10:16:51;;;;;;;10.48;4.85;;;30.10;1.00;;;;;;7385423;19;20086;-71
2023/06/22 10:19:24;;;;;;;8.70;4.80;;;30.20;1.00;;;;;;7391071;19;20014;-71
2023/06/22 10:21:55;;;;;;;10.98;5.13;;;29.80;1.00;;;;;;7391574;19;20038;-72
2023/06/22 10:24:25;;;;;;;12.25;5.80;;;29.80;1.00;;;;;;7386929;19;20487;-74
2023/06/22 10:26:55;;;;;;;8.65;4.60;;;29.70;1.00;;;;;;7388073;19;20034;-73
2023/06/22 10:29:25;;;;;;;10.23;4.72;;;30.00;1.00;;;;;;7388206;19;20229;-72
2023/06/22 10:31:55;;;;;;;9.70;4.82;;;30.30;1.00;;;;;;7387251;19;20343;-71
2023/06/22 10:34:27;;;;;;;11.35;5.20;;;30.50;1.00;;;;;;7388964;19;20368;-73
2023/06/22 10:36:57;;;;;;;9.63;5.00;;;30.70;1.00;;;;;;7387647;19;20013;-73
2023/06/22 10:39:27;;;;;;;7.68;4.80;;;30.60;1.00;;;;;;7389171;19;20018;-72
2023/06/22 10:41:57;;;;;;;7.40;4.85;;;30.20;1.00;;;;;;7387350;19;20042;-72
2023/06/22 10:44:27;;;;;;;8.82;4.85;;;29.90;1.00;;;;;;7388240;19;20125;-72
2023/06/22 10:46:57;;;;;;;9.98;4.40;;;30.50;1.00;;;;;;7390770;19;20131;-71
2023/06/22 10:49:31;;;;;;;12.23;4.90;;;31.10;1.00;;;;;;7391493;19;20082;-72
2023/06/22 10:52:01;;;;;;;8.40;4.93;;;30.70;1.00;;;;;;7390907;19;20027;-72
2023/06/22 10:54:30;;;;;;;9.65;5.25;;;31.00;1.00;;;;;;7386207;19;20084;-72
2023/06/22 10:57:00;;;;;;;10.35;5.38;;;31.00;1.00;;;;;;7387570;19;20018;-72
2023/06/22 10:59:31;;;;;;;9.38;4.85;;;30.70;1.00;;;;;;7383767;19;20409;-73
2023/06/22 11:02:02;;;;;;;11.60;4.65;;;30.50;1.00;;;;;;7387837;19;20029;-72
2023/06/22 11:04:35;;;;;;;10.48;5.05;;;30.50;1.00;;;;;;7382685;19;20522;-72
2023/06/22 11:07:05;;;;;;;12.07;4.80;;;30.30;1.00;;;;;;7385951;19;20366;-72
2023/06/22 11:09:35;;;;;;;6.63;4.25;;;30.80;1.00;;;;;;7385850;19;20495;-72
2023/06/22 11:12:06;;;;;;;10.63;4.85;;;30.90;1.00;;;;;;7396091;19;20015;-72
2023/06/22 11:14:36;;;;;;;10.13;5.22;;;30.70;1.00;;;;;;7393709;19;20014;-71
2023/06/22 11:17:07;;;;;;;7.18;4.30;;;30.90;1.00;;;;;;7393623;19;20376;-72
2023/06/22 11:19:39;;;;;;;8.93;4.68;;;31.20;1.00;;;;;;7392779;19;20034;-73
2023/06/22 11:22:09;;;;;;;12.43;4.63;;;31.30;1.00;;;;;;7394032;19;20011;-72
2023/06/22 11:24:39;;;;;;;10.43;4.50;;;31.10;1.00;;;;;;7393688;19;20035;-73
2023/06/22 11:27:09;;;;;;;10.00;4.88;;;30.90;1.00;;;;;;7394056;19;20020;-72
2023/06/22 11:29:39;;;;;;;10.95;4.53;;;30.70;1.00;;;;;;7393627;19;20018;-73
2023/06/22 11:32:10;;;;;;;9.93;4.82;;;31.00;1.00;;;;;;7393217;19;20011;-71
2023/06/22 11:34:45;;;;;;;7.13;4.25;;;31.10;1.00;;;;;;7393238;19;20051;-71
2023/06/22 11:37:15;;;;;;;10.30;4.60;;;31.00;1.00;;;;;;7393266;19;20108;-72
2023/06/22 11:39:45;;;;;;;10.90;5.03;;;30.90;1.00;;;;;;7391413;19;20031;-72
2023/06/22 11:42:23;;;;;;;11.57;4.40;;;30.50;1.00;;;;;;7393061;19;20022;-71
2023/06/22 11:44:53;;;;;;;8.50;4.50;;;30.50;1.00;;;;;;7394345;19;20039;-71
2023/06/22 11:47:23;;;;;;;11.48;5.07;;;30.40;1.00;;;;;;7392972;19;20470;-72
2023/06/22 11:49:55;;;;;;;10.18;5.28;;;30.70;1.00;;;;;;7391707;19;20086;-72
2023/06/22 11:52:26;;;;;;;9.00;4.50;;;30.50;1.00;;;;;;7393922;19;20047;-72
2023/06/22 11:54:56;;;;;;;12.27;4.65;;;30.80;1.00;;;;;;7394893;19;20479;-71
2023/06/22 11:57:26;;;;;;;8.05;4.97;;;30.90;1.00;;;;;;7395942;19;20017;-72
2023/06/22 11:59:55;;;;;;;14.57;4.47;;;31.00;1.00;;;;;;7390855;19;20082;-71
2023/06/22 12:02:25;;;;;;;10.30;4.78;;;30.90;1.00;;;;;;7391626;19;20032;-72
2023/06/22 12:04:58;;;;;;;8.90;4.57;;;30.90;1.00;;;;;;7392612;19;20039;-73
2023/06/22 12:07:28;;;;;;;8.80;5.00;;;30.90;1.00;;;;;;7387297;19;20026;-72
2023/06/22 12:09:58;;;;;;;10.57;4.50;;;30.80;1.00;;;;;;7389669;19;20023;-72
2023/06/22 12:12:28;;;;;;;9.38;4.35;;;30.70;1.00;;;;;;7394967;19;20021;-73
2023/06/22 12:15:00;;;;;;;9.52;4.45;;;30.60;1.00;;;;;;7393392;19;20351;-72
2023/06/22 12:17:30;;;;;;;8.35;4.65;;;30.40;1.00;;;;;;7392120;19;20538;-71
2023/06/22 12:20:05;;;;;;;9.02;4.35;;;30.40;1.00;;;;;;7393556;19;20032;-71
2023/06/22 12:22:35;;;;;;;9.30;4.50;;;30.40;1.00;;;;;;7389957;19;20015;-72
2023/06/22 12:25:05;;;;;;;12.15;5.07;;;30.40;1.00;;;;;;7391631;19;20010;-72
2023/06/22 12:27:35;;;;;;;19.08;4.78;;;30.70;1.00;;;;;;7391239;19;20023;-72
2023/06/22 12:30:05;;;;;;;13.30;4.78;;;30.80;1.00;;;;;;7393035;19;20054;-71
2023/06/22 12:32:35;;;;;;;11.57;4.78;;;30.70;1.00;;;;;;7391765;19;20014;-73
2023/06/22 12:35:13;;;;;;;10.68;4.60;;;30.60;1.00;;;;;;7396386;19;20483;-72
2023/06/22 12:37:44;;;;;;;13.52;5.15;;;30.70;1.00;;;;;;7394811;19;20563;-73
2023/06/22 12:40:15;;;;;;;9.07;4.60;;;30.60;1.00;;;;;;7390554;19;20015;-72
2023/06/22 12:42:45;;;;;;;9.63;4.38;;;30.80;1.00;;;;;;7391499;19;20471;-72
2023/06/22 12:45:15;;;;;;;7.93;4.45;;;30.80;1.00;;;;;;7391166;19;20510;-72
2023/06/22 12:47:44;;;;;;;10.70;5.13;;;30.80;1.00;;;;;;7391318;19;20094;-71
2023/06/22 12:50:17;;;;;;;9.75;4.88;;;30.80;1.00;;;;;;7389566;19;20016;-73
2023/06/22 12:52:48;;;;;;;14.07;5.00;;;30.90;1.00;;;;;;7390276;19;20017;-73
2023/06/22 12:55:18;;;;;;;8.68;4.78;;;30.70;1.00;;;;;;7383173;19;20031;-74
2023/06/22 12:57:47;;;;;;;10.13;4.93;;;30.60;1.00;;;;;;7386378;19;20039;-74
2023/06/22 13:00:19;;;;;;;11.35;5.13;;;30.60;1.00;;;;;;7384125;19;20499;-74
2023/06/22 13:02:49;;;;;;;11.63;5.00;;;30.60;1.00;;;;;;7387576;19;20014;-73
2023/06/22 13:05:22;;;;;;;8.20;4.88;;;30.50;1.00;;;;;;7390624;19;20434;-73
2023/06/22 13:07:52;;;;;;;10.05;4.80;;;30.50;1.00;;;;;;7390264;19;20090;-72
2023/06/22 13:10:22;;;;;;;13.52;5.72;;;30.50;1.00;;;;;;7385096;19;20076;-73